sensor_id;sensor_type;location;lat;lon;timestamp;P1;durP1;ratioP1;P2;durP2;ratioP2
76208;SDS011;64990;51.698;-0.292;2023-03-14T00:01:53;36.10;;;6.20;;
76208;SDS011;64990;51.698;-0.292;2023-03-14T00:04:19;23.33;;;5.30;;
76208;SDS011;64990;51.698;-0.292;2023-03-14T00:06:45;28.08;;;4.93;;
76208;SDS011;64990;51.698;-0.292;2023-03-14T00:09:12;23.67;;;4.07;;
76208;SDS011;64990;51.698;-0.292;2023-03-14T00:11:38;45.58;;;5.47;;
76208;SDS011;64990;51.698;-0.292;2023-03-14T00:14:04;48.72;;;6.43;;
76208;SDS011;64990;51.698;-0.292;2023-03-14T00:16:30;25.02;;;5.18;;
76208;SDS011;64990;51.698;-0.292;2023-03-14T00:18:57;30.75;;;3.78;;
76208;SDS011;64990;51.698;-0.292;2023-03-14T00:21:24;37.83;;;6.25;;
76208;SDS011;64990;51.698;-0.292;2023-03-14T00:23:50;34.95;;;4.78;;
76208;SDS011;64990;51.698;-0.292;2023-03-14T00:26:18;34.58;;;6.03;;
76208;SDS011;64990;51.698;-0.292;2023-03-14T00:28:44;23.60;;;5.30;;
76208;SDS011;64990;51.698;-0.292;2023-03-14T00:31:11;33.90;;;6.57;;
76208;SDS011;64990;51.698;-0.292;2023-03-14T00:33:38;38.50;;;6.13;;
76208;SDS011;64990;51.698;-0.292;2023-03-14T00:36:08;43.13;;;4.85;;
76208;SDS011;64990;51.698;-0.292;2023-03-14T00:38:37;50.35;;;5.20;;
76208;SDS011;64990;51.698;-0.292;2023-03-14T00:41:04;7.05;;;0.70;;
76208;SDS011;64990;51.698;-0.292;2023-03-14T00:43:31;1.75;;;0.98;;
76208;SDS011;64990;51.698;-0.292;2023-03-14T00:45:57;6.30;;;0.82;;
76208;SDS011;64990;51.698;-0.292;2023-03-14T00:48:23;3.67;;;0.60;;
76208;SDS011;64990;51.698;-0.292;2023-03-14T00:50:49;4.63;;;0.63;;
76208;SDS011;64990;51.698;-0.292;2023-03-14T00:53:15;0.60;;;0.60;;
76208;SDS011;64990;51.698;-0.292;2023-03-14T00:55:42;1.48;;;0.85;;
76208;SDS011;64990;51.698;-0.292;2023-03-14T00:58:08;1.10;;;0.95;;
76208;SDS011;64990;51.698;-0.292;2023-03-14T01:00:35;11.05;;;1.23;;
76208;SDS011;64990;51.698;-0.292;2023-03-14T01:03:01;0.77;;;0.77;;
76208;SDS011;64990;51.698;-0.292;2023-03-14T01:05:27;6.22;;;0.80;;
76208;SDS011;64990;51.698;-0.292;2023-03-14T01:07:53;0.82;;;0.82;;
76208;SDS011;64990;51.698;-0.292;2023-03-14T01:10:21;0.80;;;0.80;;
76208;SDS011;64990;51.698;-0.292;2023-03-14T01:12:47;3.30;;;0.75;;
76208;SDS011;64990;51.698;-0.292;2023-03-14T01:15:13;0.68;;;0.68;;
76208;SDS011;64990;51.698;-0.292;2023-03-14T01:17:39;3.92;;;0.93;;
76208;SDS011;64990;51.698;-0.292;2023-03-14T01:20:06;1.00;;;0.68;;
76208;SDS011;64990;51.698;-0.292;2023-03-14T01:22:36;1.85;;;1.15;;
76208;SDS011;64990;51.698;-0.292;2023-03-14T01:25:04;0.90;;;0.90;;
76208;SDS011;64990;51.698;-0.292;2023-03-14T01:27:31;0.80;;;0.77;;
76208;SDS011;64990;51.698;-0.292;2023-03-14T01:29:57;3.60;;;0.90;;
76208;SDS011;64990;51.698;-0.292;2023-03-14T01:32:24;1.23;;;0.77;;
76208;SDS011;64990;51.698;-0.292;2023-03-14T01:34:50;1.00;;;0.88;;
76208;SDS011;64990;51.698;-0.292;2023-03-14T01:37:16;8.98;;;0.85;;
76208;SDS011;64990;51.698;-0.292;2023-03-14T01:39:42;2.20;;;1.02;;
76208;SDS011;64990;51.698;-0.292;2023-03-14T01:42:08;0.80;;;0.80;;
76208;SDS011;64990;51.698;-0.292;2023-03-14T01:47:13;2.28;;;0.77;;
76208;SDS011;64990;51.698;-0.292;2023-03-14T01:49:39;1.02;;;1.00;;
76208;SDS011;64990;51.698;-0.292;2023-03-14T01:55:09;2.05;;;0.80;;
76208;SDS011;64990;51.698;-0.292;2023-03-14T01:57:37;1.25;;;1.00;;
76208;SDS011;64990;51.698;-0.292;2023-03-14T02:00:13;6.05;;;1.20;;
76208;SDS011;64990;51.698;-0.292;2023-03-14T02:02:46;2.05;;;1.05;;
76208;SDS011;64990;51.698;-0.292;2023-03-14T02:05:14;1.35;;;1.10;;
76208;SDS011;64990;51.698;-0.292;2023-03-14T02:07:49;2.70;;;0.98;;
76208;SDS011;64990;51.698;-0.292;2023-03-14T02:10:16;0.80;;;0.80;;
76208;SDS011;64990;51.698;-0.292;2023-03-14T02:12:44;2.78;;;0.98;;
76208;SDS011;64990;51.698;-0.292;2023-03-14T02:15:10;2.80;;;0.93;;
76208;SDS011;64990;51.698;-0.292;2023-03-14T02:17:40;0.47;;;0.47;;
76208;SDS011;64990;51.698;-0.292;2023-03-14T02:22:48;2.75;;;0.70;;
76208;SDS011;64990;51.698;-0.292;2023-03-14T02:25:38;0.88;;;0.88;;
76208;SDS011;64990;51.698;-0.292;2023-03-14T02:28:00;0.70;;;0.70;;
76208;SDS011;64990;51.698;-0.292;2023-03-14T02:30:27;1.35;;;0.75;;
76208;SDS011;64990;51.698;-0.292;2023-03-14T02:32:55;2.15;;;1.27;;
76208;SDS011;64990;51.698;-0.292;2023-03-14T02:35:24;3.50;;;2.65;;
76208;SDS011;64990;51.698;-0.292;2023-03-14T02:37:53;1.90;;;0.70;;
76208;SDS011;64990;51.698;-0.292;2023-03-14T02:40:20;3.20;;;1.33;;
76208;SDS011;64990;51.698;-0.292;2023-03-14T02:42:46;6.22;;;0.60;;
76208;SDS011;64990;51.698;-0.292;2023-03-14T02:47:39;1.40;;;0.88;;
76208;SDS011;64990;51.698;-0.292;2023-03-14T02:50:09;0.60;;;0.60;;
76208;SDS011;64990;51.698;-0.292;2023-03-14T02:52:37;1.02;;;0.75;;
76208;SDS011;64990;51.698;-0.292;2023-03-14T02:55:03;2.08;;;0.98;;
76208;SDS011;64990;51.698;-0.292;2023-03-14T02:57:29;1.58;;;1.20;;
76208;SDS011;64990;51.698;-0.292;2023-03-14T02:59:59;0.98;;;0.93;;
76208;SDS011;64990;51.698;-0.292;2023-03-14T03:02:25;3.13;;;1.63;;
76208;SDS011;64990;51.698;-0.292;2023-03-14T03:04:51;0.80;;;0.80;;
76208;SDS011;64990;51.698;-0.292;2023-03-14T03:07:17;0.95;;;0.95;;
76208;SDS011;64990;51.698;-0.292;2023-03-14T03:09:44;0.85;;;0.85;;
76208;SDS011;64990;51.698;-0.292;2023-03-14T03:12:10;0.70;;;0.70;;
76208;SDS011;64990;51.698;-0.292;2023-03-14T03:14:36;3.40;;;0.85;;
76208;SDS011;64990;51.698;-0.292;2023-03-14T03:17:03;1.90;;;1.52;;
76208;SDS011;64990;51.698;-0.292;2023-03-14T03:19:29;2.95;;;1.40;;
76208;SDS011;64990;51.698;-0.292;2023-03-14T03:21:56;1.58;;;0.73;;
76208;SDS011;64990;51.698;-0.292;2023-03-14T03:24:23;1.60;;;0.90;;
76208;SDS011;64990;51.698;-0.292;2023-03-14T03:26:49;3.05;;;1.05;;
76208;SDS011;64990;51.698;-0.292;2023-03-14T03:29:15;1.23;;;0.98;;
76208;SDS011;64990;51.698;-0.292;2023-03-14T03:31:41;0.73;;;0.73;;
76208;SDS011;64990;51.698;-0.292;2023-03-14T03:34:07;0.60;;;0.60;;
76208;SDS011;64990;51.698;-0.292;2023-03-14T03:36:33;2.75;;;2.55;;
76208;SDS011;64990;51.698;-0.292;2023-03-14T03:38:59;0.60;;;0.60;;
76208;SDS011;64990;51.698;-0.292;2023-03-14T03:41:25;6.30;;;1.40;;
76208;SDS011;64990;51.698;-0.292;2023-03-14T03:43:51;0.55;;;0.55;;
76208;SDS011;64990;51.698;-0.292;2023-03-14T03:46:19;2.00;;;1.10;;
76208;SDS011;64990;51.698;-0.292;2023-03-14T03:48:45;3.42;;;0.80;;
76208;SDS011;64990;51.698;-0.292;2023-03-14T03:51:14;5.68;;;0.80;;
76208;SDS011;64990;51.698;-0.292;2023-03-14T03:53:41;1.15;;;0.85;;
76208;SDS011;64990;51.698;-0.292;2023-03-14T03:56:07;8.77;;;2.00;;
76208;SDS011;64990;51.698;-0.292;2023-03-14T03:58:34;0.90;;;0.90;;
76208;SDS011;64990;51.698;-0.292;2023-03-14T04:01:00;0.70;;;0.70;;
76208;SDS011;64990;51.698;-0.292;2023-03-14T04:03:26;0.65;;;0.63;;
76208;SDS011;64990;51.698;-0.292;2023-03-14T04:05:59;0.50;;;0.50;;
76208;SDS011;64990;51.698;-0.292;2023-03-14T04:08:25;0.82;;;0.75;;
76208;SDS011;64990;51.698;-0.292;2023-03-14T04:10:55;2.28;;;1.00;;
76208;SDS011;64990;51.698;-0.292;2023-03-14T04:13:22;1.75;;;1.30;;
76208;SDS011;64990;51.698;-0.292;2023-03-14T04:15:48;6.15;;;0.65;;
76208;SDS011;64990;51.698;-0.292;2023-03-14T04:18:14;0.60;;;0.60;;
76208;SDS011;64990;51.698;-0.292;2023-03-14T04:20:40;2.58;;;1.15;;
76208;SDS011;64990;51.698;-0.292;2023-03-14T04:23:06;13.82;;;0.98;;
76208;SDS011;64990;51.698;-0.292;2023-03-14T04:25:32;1.50;;;0.70;;
76208;SDS011;64990;51.698;-0.292;2023-03-14T04:27:58;3.28;;;1.17;;
76208;SDS011;64990;51.698;-0.292;2023-03-14T04:30:24;0.60;;;0.60;;
76208;SDS011;64990;51.698;-0.292;2023-03-14T04:32:50;10.25;;;0.95;;
76208;SDS011;64990;51.698;-0.292;2023-03-14T04:35:16;2.30;;;0.63;;
76208;SDS011;64990;51.698;-0.292;2023-03-14T04:37:42;11.43;;;1.60;;
76208;SDS011;64990;51.698;-0.292;2023-03-14T04:40:09;2.50;;;1.23;;
76208;SDS011;64990;51.698;-0.292;2023-03-14T04:42:35;7.40;;;1.35;;
76208;SDS011;64990;51.698;-0.292;2023-03-14T04:45:01;0.75;;;0.75;;
76208;SDS011;64990;51.698;-0.292;2023-03-14T04:47:28;8.77;;;1.17;;
76208;SDS011;64990;51.698;-0.292;2023-03-14T04:49:54;6.57;;;0.90;;
76208;SDS011;64990;51.698;-0.292;2023-03-14T04:52:20;0.80;;;0.80;;
76208;SDS011;64990;51.698;-0.292;2023-03-14T04:54:46;2.10;;;0.80;;
76208;SDS011;64990;51.698;-0.292;2023-03-14T04:57:12;5.90;;;0.98;;
76208;SDS011;64990;51.698;-0.292;2023-03-14T04:59:38;0.90;;;0.80;;
76208;SDS011;64990;51.698;-0.292;2023-03-14T05:02:04;3.35;;;0.75;;
76208;SDS011;64990;51.698;-0.292;2023-03-14T05:04:30;2.40;;;0.98;;
76208;SDS011;64990;51.698;-0.292;2023-03-14T05:06:58;0.80;;;0.80;;
76208;SDS011;64990;51.698;-0.292;2023-03-14T05:09:24;7.93;;;1.02;;
76208;SDS011;64990;51.698;-0.292;2023-03-14T05:11:50;5.88;;;1.10;;
76208;SDS011;64990;51.698;-0.292;2023-03-14T05:14:16;3.05;;;2.08;;
76208;SDS011;64990;51.698;-0.292;2023-03-14T05:16:42;1.85;;;1.10;;
76208;SDS011;64990;51.698;-0.292;2023-03-14T05:19:08;2.95;;;0.95;;
76208;SDS011;64990;51.698;-0.292;2023-03-14T05:21:34;4.43;;;1.15;;
76208;SDS011;64990;51.698;-0.292;2023-03-14T05:24:00;5.53;;;1.23;;
76208;SDS011;64990;51.698;-0.292;2023-03-14T05:26:26;9.55;;;1.00;;
76208;SDS011;64990;51.698;-0.292;2023-03-14T05:28:52;1.73;;;1.08;;
76208;SDS011;64990;51.698;-0.292;2023-03-14T05:31:18;8.13;;;2.05;;
76208;SDS011;64990;51.698;-0.292;2023-03-14T05:33:44;2.67;;;0.90;;
76208;SDS011;64990;51.698;-0.292;2023-03-14T05:36:10;2.60;;;1.30;;
76208;SDS011;64990;51.698;-0.292;2023-03-14T05:38:36;2.05;;;0.85;;
76208;SDS011;64990;51.698;-0.292;2023-03-14T05:41:02;1.42;;;1.33;;
76208;SDS011;64990;51.698;-0.292;2023-03-14T05:43:28;1.40;;;0.98;;
76208;SDS011;64990;51.698;-0.292;2023-03-14T05:45:54;9.02;;;1.35;;
76208;SDS011;64990;51.698;-0.292;2023-03-14T05:48:20;0.80;;;0.70;;
76208;SDS011;64990;51.698;-0.292;2023-03-14T05:50:46;1.25;;;1.05;;
76208;SDS011;64990;51.698;-0.292;2023-03-14T05:53:13;12.73;;;1.27;;
76208;SDS011;64990;51.698;-0.292;2023-03-14T05:55:39;0.90;;;0.90;;
76208;SDS011;64990;51.698;-0.292;2023-03-14T05:58:05;4.90;;;1.08;;
76208;SDS011;64990;51.698;-0.292;2023-03-14T06:00:31;0.93;;;0.93;;
76208;SDS011;64990;51.698;-0.292;2023-03-14T06:02:57;2.38;;;1.20;;
76208;SDS011;64990;51.698;-0.292;2023-03-14T06:05:23;7.60;;;0.95;;
76208;SDS011;64990;51.698;-0.292;2023-03-14T06:07:49;2.55;;;1.23;;
76208;SDS011;64990;51.698;-0.292;2023-03-14T06:10:15;2.88;;;1.25;;
76208;SDS011;64990;51.698;-0.292;2023-03-14T06:12:41;8.13;;;1.98;;
76208;SDS011;64990;51.698;-0.292;2023-03-14T06:15:08;9.98;;;2.70;;
76208;SDS011;64990;51.698;-0.292;2023-03-14T06:17:34;9.85;;;1.35;;
76208;SDS011;64990;51.698;-0.292;2023-03-14T06:20:00;6.22;;;1.75;;
76208;SDS011;64990;51.698;-0.292;2023-03-14T06:22:26;8.63;;;2.33;;
76208;SDS011;64990;51.698;-0.292;2023-03-14T06:24:52;9.10;;;2.80;;
76208;SDS011;64990;51.698;-0.292;2023-03-14T06:27:18;7.60;;;2.63;;
76208;SDS011;64990;51.698;-0.292;2023-03-14T06:29:44;5.22;;;2.80;;
76208;SDS011;64990;51.698;-0.292;2023-03-14T06:32:10;13.48;;;3.85;;
76208;SDS011;64990;51.698;-0.292;2023-03-14T06:34:36;13.30;;;2.60;;
76208;SDS011;64990;51.698;-0.292;2023-03-14T06:37:03;11.23;;;3.03;;
76208;SDS011;64990;51.698;-0.292;2023-03-14T06:39:29;24.38;;;2.83;;
76208;SDS011;64990;51.698;-0.292;2023-03-14T06:41:56;8.13;;;2.03;;
76208;SDS011;64990;51.698;-0.292;2023-03-14T06:44:22;5.63;;;1.65;;
76208;SDS011;64990;51.698;-0.292;2023-03-14T06:46:48;11.73;;;2.30;;
76208;SDS011;64990;51.698;-0.292;2023-03-14T06:49:14;8.52;;;2.03;;
76208;SDS011;64990;51.698;-0.292;2023-03-14T06:51:40;1.92;;;1.13;;
76208;SDS011;64990;51.698;-0.292;2023-03-14T06:54:06;2.65;;;1.67;;
76208;SDS011;64990;51.698;-0.292;2023-03-14T06:56:32;14.50;;;1.83;;
76208;SDS011;64990;51.698;-0.292;2023-03-14T06:58:58;5.28;;;1.52;;
76208;SDS011;64990;51.698;-0.292;2023-03-14T07:01:25;14.60;;;4.53;;
76208;SDS011;64990;51.698;-0.292;2023-03-14T07:03:51;6.68;;;1.20;;
76208;SDS011;64990;51.698;-0.292;2023-03-14T07:06:17;2.78;;;2.05;;
76208;SDS011;64990;51.698;-0.292;2023-03-14T07:08:44;7.82;;;1.77;;
76208;SDS011;64990;51.698;-0.292;2023-03-14T07:11:10;15.00;;;2.08;;
76208;SDS011;64990;51.698;-0.292;2023-03-14T07:13:37;3.70;;;2.42;;
76208;SDS011;64990;51.698;-0.292;2023-03-14T07:16:03;2.92;;;1.40;;
76208;SDS011;64990;51.698;-0.292;2023-03-14T07:18:30;5.32;;;2.38;;
76208;SDS011;64990;51.698;-0.292;2023-03-14T07:20:57;7.25;;;1.42;;
76208;SDS011;64990;51.698;-0.292;2023-03-14T07:23:23;15.57;;;2.13;;
76208;SDS011;64990;51.698;-0.292;2023-03-14T07:25:49;8.38;;;3.00;;
76208;SDS011;64990;51.698;-0.292;2023-03-14T07:28:19;8.15;;;2.25;;
76208;SDS011;64990;51.698;-0.292;2023-03-14T07:30:46;8.23;;;1.70;;
76208;SDS011;64990;51.698;-0.292;2023-03-14T07:33:12;9.00;;;2.10;;
76208;SDS011;64990;51.698;-0.292;2023-03-14T07:35:39;8.10;;;1.80;;
76208;SDS011;64990;51.698;-0.292;2023-03-14T07:38:05;9.98;;;3.08;;
76208;SDS011;64990;51.698;-0.292;2023-03-14T07:40:31;1.90;;;1.30;;
76208;SDS011;64990;51.698;-0.292;2023-03-14T07:42:57;6.22;;;1.90;;
76208;SDS011;64990;51.698;-0.292;2023-03-14T07:45:23;1.80;;;1.52;;
76208;SDS011;64990;51.698;-0.292;2023-03-14T07:47:49;2.00;;;1.83;;
76208;SDS011;64990;51.698;-0.292;2023-03-14T07:50:15;2.03;;;1.50;;
76208;SDS011;64990;51.698;-0.292;2023-03-14T07:52:41;2.42;;;1.30;;
76208;SDS011;64990;51.698;-0.292;2023-03-14T07:55:07;2.35;;;2.15;;
76208;SDS011;64990;51.698;-0.292;2023-03-14T07:57:33;2.42;;;1.90;;
76208;SDS011;64990;51.698;-0.292;2023-03-14T07:59:59;2.72;;;1.25;;
76208;SDS011;64990;51.698;-0.292;2023-03-14T08:02:25;7.53;;;1.58;;
76208;SDS011;64990;51.698;-0.292;2023-03-14T08:04:51;2.65;;;1.88;;
76208;SDS011;64990;51.698;-0.292;2023-03-14T08:07:17;2.47;;;1.60;;
76208;SDS011;64990;51.698;-0.292;2023-03-14T08:09:43;1.75;;;1.58;;
76208;SDS011;64990;51.698;-0.292;2023-03-14T08:12:10;1.20;;;1.10;;
76208;SDS011;64990;51.698;-0.292;2023-03-14T08:14:36;1.90;;;1.42;;
76208;SDS011;64990;51.698;-0.292;2023-03-14T08:17:02;2.63;;;1.80;;
76208;SDS011;64990;51.698;-0.292;2023-03-14T08:19:28;12.88;;;1.92;;
76208;SDS011;64990;51.698;-0.292;2023-03-14T08:21:54;1.20;;;1.10;;
76208;SDS011;64990;51.698;-0.292;2023-03-14T08:24:20;3.47;;;1.20;;
76208;SDS011;64990;51.698;-0.292;2023-03-14T08:26:46;0.90;;;0.90;;
76208;SDS011;64990;51.698;-0.292;2023-03-14T08:29:12;0.70;;;0.70;;
76208;SDS011;64990;51.698;-0.292;2023-03-14T08:31:38;1.02;;;1.00;;
76208;SDS011;64990;51.698;-0.292;2023-03-14T08:34:04;0.90;;;0.90;;
76208;SDS011;64990;51.698;-0.292;2023-03-14T08:36:31;1.02;;;1.00;;
76208;SDS011;64990;51.698;-0.292;2023-03-14T08:38:57;5.13;;;0.90;;
76208;SDS011;64990;51.698;-0.292;2023-03-14T08:41:23;6.43;;;1.40;;
76208;SDS011;64990;51.698;-0.292;2023-03-14T08:43:49;4.38;;;1.23;;
76208;SDS011;64990;51.698;-0.292;2023-03-14T08:46:15;4.10;;;1.08;;
76208;SDS011;64990;51.698;-0.292;2023-03-14T08:48:41;3.00;;;1.55;;
76208;SDS011;64990;51.698;-0.292;2023-03-14T08:51:08;4.32;;;1.88;;
76208;SDS011;64990;51.698;-0.292;2023-03-14T08:53:35;3.40;;;1.60;;
76208;SDS011;64990;51.698;-0.292;2023-03-14T08:56:01;7.65;;;2.22;;
76208;SDS011;64990;51.698;-0.292;2023-03-14T08:58:28;5.25;;;2.70;;
76208;SDS011;64990;51.698;-0.292;2023-03-14T09:00:55;4.05;;;2.60;;
76208;SDS011;64990;51.698;-0.292;2023-03-14T09:03:21;5.57;;;1.95;;
76208;SDS011;64990;51.698;-0.292;2023-03-14T09:05:48;6.10;;;2.78;;
76208;SDS011;64990;51.698;-0.292;2023-03-14T09:08:15;9.77;;;1.90;;
76208;SDS011;64990;51.698;-0.292;2023-03-14T09:10:41;3.20;;;1.48;;
76208;SDS011;64990;51.698;-0.292;2023-03-14T09:13:07;9.32;;;3.03;;
76208;SDS011;64990;51.698;-0.292;2023-03-14T09:15:33;8.73;;;2.15;;
76208;SDS011;64990;51.698;-0.292;2023-03-14T09:17:59;9.88;;;1.33;;
76208;SDS011;64990;51.698;-0.292;2023-03-14T09:20:25;21.70;;;4.60;;
76208;SDS011;64990;51.698;-0.292;2023-03-14T09:22:51;9.93;;;2.60;;
76208;SDS011;64990;51.698;-0.292;2023-03-14T09:25:17;16.45;;;2.08;;
76208;SDS011;64990;51.698;-0.292;2023-03-14T09:27:43;11.90;;;1.98;;
76208;SDS011;64990;51.698;-0.292;2023-03-14T09:30:10;10.65;;;2.92;;
76208;SDS011;64990;51.698;-0.292;2023-03-14T09:32:36;9.32;;;2.63;;
76208;SDS011;64990;51.698;-0.292;2023-03-14T09:35:03;20.45;;;2.80;;
76208;SDS011;64990;51.698;-0.292;2023-03-14T09:37:29;19.23;;;5.72;;
76208;SDS011;64990;51.698;-0.292;2023-03-14T09:39:55;5.65;;;3.08;;
76208;SDS011;64990;51.698;-0.292;2023-03-14T09:42:22;16.80;;;4.75;;
76208;SDS011;64990;51.698;-0.292;2023-03-14T09:47:21;6.72;;;1.75;;
76208;SDS011;64990;51.698;-0.292;2023-03-14T09:49:48;13.93;;;3.20;;
76208;SDS011;64990;51.698;-0.292;2023-03-14T09:52:15;9.57;;;2.45;;
76208;SDS011;64990;51.698;-0.292;2023-03-14T09:54:47;11.23;;;2.10;;
76208;SDS011;64990;51.698;-0.292;2023-03-14T09:57:17;14.40;;;4.70;;
76208;SDS011;64990;51.698;-0.292;2023-03-14T09:59:44;12.90;;;2.85;;
76208;SDS011;64990;51.698;-0.292;2023-03-14T10:02:15;10.57;;;2.50;;
76208;SDS011;64990;51.698;-0.292;2023-03-14T10:04:42;15.00;;;3.20;;
76208;SDS011;64990;51.698;-0.292;2023-03-14T10:07:11;16.15;;;3.22;;
76208;SDS011;64990;51.698;-0.292;2023-03-14T10:09:39;21.10;;;3.60;;
76208;SDS011;64990;51.698;-0.292;2023-03-14T10:12:07;19.25;;;3.33;;
76208;SDS011;64990;51.698;-0.292;2023-03-14T10:14:36;9.02;;;3.13;;
76208;SDS011;64990;51.698;-0.292;2023-03-14T10:17:06;14.65;;;3.20;;
76208;SDS011;64990;51.698;-0.292;2023-03-14T10:19:33;16.63;;;4.10;;
76208;SDS011;64990;51.698;-0.292;2023-03-14T10:22:00;14.85;;;2.42;;
76208;SDS011;64990;51.698;-0.292;2023-03-14T10:24:29;16.13;;;2.78;;
76208;SDS011;64990;51.698;-0.292;2023-03-14T10:27:00;10.88;;;3.00;;
76208;SDS011;64990;51.698;-0.292;2023-03-14T10:29:27;8.82;;;3.75;;
76208;SDS011;64990;51.698;-0.292;2023-03-14T10:34:23;18.50;;;2.70;;
76208;SDS011;64990;51.698;-0.292;2023-03-14T10:36:54;16.80;;;4.90;;
76208;SDS011;64990;51.698;-0.292;2023-03-14T10:39:22;17.48;;;4.43;;
76208;SDS011;64990;51.698;-0.292;2023-03-14T10:44:35;15.10;;;3.60;;
76208;SDS011;64990;51.698;-0.292;2023-03-14T10:47:02;13.30;;;2.90;;
76208;SDS011;64990;51.698;-0.292;2023-03-14T10:49:31;12.93;;;4.18;;
76208;SDS011;64990;51.698;-0.292;2023-03-14T10:54:41;8.40;;;3.28;;
76208;SDS011;64990;51.698;-0.292;2023-03-14T10:57:12;14.15;;;2.58;;
76208;SDS011;64990;51.698;-0.292;2023-03-14T10:59:39;13.68;;;2.78;;
76208;SDS011;64990;51.698;-0.292;2023-03-14T11:04:55;17.63;;;3.60;;
76208;SDS011;64990;51.698;-0.292;2023-03-14T11:08:06;22.15;;;3.47;;
76208;SDS011;64990;51.698;-0.292;2023-03-14T11:10:18;17.45;;;4.55;;
76208;SDS011;64990;51.698;-0.292;2023-03-14T11:15:20;8.88;;;2.47;;
76208;SDS011;64990;51.698;-0.292;2023-03-14T11:20:35;12.93;;;3.92;;
76208;SDS011;64990;51.698;-0.292;2023-03-14T11:23:08;20.25;;;1.90;;
76208;SDS011;64990;51.698;-0.292;2023-03-14T11:25:42;13.43;;;2.33;;
76208;SDS011;64990;51.698;-0.292;2023-03-14T11:30:40;10.48;;;2.70;;
76208;SDS011;64990;51.698;-0.292;2023-03-14T11:33:15;19.65;;;3.20;;
76208;SDS011;64990;51.698;-0.292;2023-03-14T11:40:56;12.70;;;3.47;;
76208;SDS011;64990;51.698;-0.292;2023-03-14T11:43:30;14.57;;;2.83;;
76208;SDS011;64990;51.698;-0.292;2023-03-14T11:46:46;8.32;;;2.17;;
76208;SDS011;64990;51.698;-0.292;2023-03-14T11:48:57;18.05;;;3.42;;
76208;SDS011;64990;51.698;-0.292;2023-03-14T11:51:29;8.48;;;2.72;;
76208;SDS011;64990;51.698;-0.292;2023-03-14T11:54:14;14.88;;;2.67;;
76208;SDS011;64990;51.698;-0.292;2023-03-14T11:56:52;21.77;;;2.33;;
76208;SDS011;64990;51.698;-0.292;2023-03-14T11:59:22;8.20;;;2.30;;
76208;SDS011;64990;51.698;-0.292;2023-03-14T12:01:53;4.18;;;1.33;;
76208;SDS011;64990;51.698;-0.292;2023-03-14T12:04:22;13.80;;;2.05;;
76208;SDS011;64990;51.698;-0.292;2023-03-14T12:06:50;15.48;;;2.17;;
76208;SDS011;64990;51.698;-0.292;2023-03-14T12:09:16;6.60;;;2.75;;
76208;SDS011;64990;51.698;-0.292;2023-03-14T12:11:44;7.47;;;1.83;;
76208;SDS011;64990;51.698;-0.292;2023-03-14T12:16:46;9.73;;;2.20;;
76208;SDS011;64990;51.698;-0.292;2023-03-14T12:21:47;30.05;;;3.30;;
76208;SDS011;64990;51.698;-0.292;2023-03-14T12:24:17;12.90;;;1.50;;
76208;SDS011;64990;51.698;-0.292;2023-03-14T12:26:57;10.63;;;1.80;;
76208;SDS011;64990;51.698;-0.292;2023-03-14T12:29:23;9.70;;;2.65;;
76208;SDS011;64990;51.698;-0.292;2023-03-14T12:34:43;7.82;;;2.60;;
76208;SDS011;64990;51.698;-0.292;2023-03-14T12:40:15;10.13;;;3.08;;
76208;SDS011;64990;51.698;-0.292;2023-03-14T12:42:59;8.25;;;2.50;;
76208;SDS011;64990;51.698;-0.292;2023-03-14T12:47:56;5.82;;;1.20;;
76208;SDS011;64990;51.698;-0.292;2023-03-14T12:50:26;4.68;;;1.63;;
76208;SDS011;64990;51.698;-0.292;2023-03-14T12:58:14;8.23;;;2.00;;
76208;SDS011;64990;51.698;-0.292;2023-03-14T13:00:42;5.10;;;1.52;;
76208;SDS011;64990;51.698;-0.292;2023-03-14T13:03:15;5.60;;;1.27;;
76208;SDS011;64990;51.698;-0.292;2023-03-14T13:06:01;10.00;;;2.63;;
76208;SDS011;64990;51.698;-0.292;2023-03-14T13:08:39;10.43;;;2.20;;
76208;SDS011;64990;51.698;-0.292;2023-03-14T13:11:15;13.18;;;1.98;;
76208;SDS011;64990;51.698;-0.292;2023-03-14T13:13:47;8.98;;;2.17;;
76208;SDS011;64990;51.698;-0.292;2023-03-14T13:16:17;9.15;;;2.17;;
76208;SDS011;64990;51.698;-0.292;2023-03-14T13:18:47;22.67;;;2.97;;
76208;SDS011;64990;51.698;-0.292;2023-03-14T13:21:18;10.70;;;1.35;;
76208;SDS011;64990;51.698;-0.292;2023-03-14T13:26:20;20.02;;;2.53;;
76208;SDS011;64990;51.698;-0.292;2023-03-14T13:28:47;16.25;;;2.63;;
76208;SDS011;64990;51.698;-0.292;2023-03-14T13:31:19;4.70;;;1.48;;
76208;SDS011;64990;51.698;-0.292;2023-03-14T13:33:46;9.15;;;2.15;;
76208;SDS011;64990;51.698;-0.292;2023-03-14T13:36:12;3.78;;;1.35;;
76208;SDS011;64990;51.698;-0.292;2023-03-14T13:38:38;6.53;;;1.35;;
76208;SDS011;64990;51.698;-0.292;2023-03-14T13:41:05;7.03;;;2.38;;
76208;SDS011;64990;51.698;-0.292;2023-03-14T13:43:32;7.40;;;2.38;;
76208;SDS011;64990;51.698;-0.292;2023-03-14T13:46:15;5.40;;;1.35;;
76208;SDS011;64990;51.698;-0.292;2023-03-14T13:48:45;6.47;;;1.90;;
76208;SDS011;64990;51.698;-0.292;2023-03-14T13:51:13;8.38;;;1.58;;
76208;SDS011;64990;51.698;-0.292;2023-03-14T13:53:44;10.10;;;1.50;;
76208;SDS011;64990;51.698;-0.292;2023-03-14T13:56:10;5.30;;;1.70;;
76208;SDS011;64990;51.698;-0.292;2023-03-14T13:58:37;8.95;;;2.17;;
76208;SDS011;64990;51.698;-0.292;2023-03-14T14:03:30;10.00;;;1.88;;
76208;SDS011;64990;51.698;-0.292;2023-03-14T14:05:56;11.07;;;1.83;;
76208;SDS011;64990;51.698;-0.292;2023-03-14T14:08:23;5.13;;;1.25;;
76208;SDS011;64990;51.698;-0.292;2023-03-14T14:10:49;5.72;;;1.70;;
76208;SDS011;64990;51.698;-0.292;2023-03-14T14:13:17;11.93;;;3.75;;
76208;SDS011;64990;51.698;-0.292;2023-03-14T14:15:47;7.03;;;2.42;;
76208;SDS011;64990;51.698;-0.292;2023-03-14T14:18:16;6.32;;;1.35;;
76208;SDS011;64990;51.698;-0.292;2023-03-14T14:20:43;8.57;;;3.38;;
76208;SDS011;64990;51.698;-0.292;2023-03-14T14:23:11;8.05;;;3.17;;
76208;SDS011;64990;51.698;-0.292;2023-03-14T14:25:37;6.60;;;1.45;;
76208;SDS011;64990;51.698;-0.292;2023-03-14T14:30:58;7.35;;;1.63;;
76208;SDS011;64990;51.698;-0.292;2023-03-14T14:33:24;9.68;;;2.60;;
76208;SDS011;64990;51.698;-0.292;2023-03-14T14:35:55;8.65;;;2.13;;
76208;SDS011;64990;51.698;-0.292;2023-03-14T14:38:21;6.63;;;2.42;;
76208;SDS011;64990;51.698;-0.292;2023-03-14T14:40:49;7.75;;;2.38;;
76208;SDS011;64990;51.698;-0.292;2023-03-14T14:43:16;6.32;;;2.20;;
76208;SDS011;64990;51.698;-0.292;2023-03-14T14:45:43;6.75;;;1.67;;
76208;SDS011;64990;51.698;-0.292;2023-03-14T14:48:11;23.98;;;2.38;;
76208;SDS011;64990;51.698;-0.292;2023-03-14T14:50:39;8.55;;;1.98;;
76208;SDS011;64990;51.698;-0.292;2023-03-14T14:53:26;5.72;;;2.13;;
76208;SDS011;64990;51.698;-0.292;2023-03-14T14:56:00;5.57;;;1.65;;
76208;SDS011;64990;51.698;-0.292;2023-03-14T14:58:29;7.85;;;1.58;;
76208;SDS011;64990;51.698;-0.292;2023-03-14T15:00:59;4.82;;;0.90;;
76208;SDS011;64990;51.698;-0.292;2023-03-14T15:03:29;5.45;;;1.40;;
76208;SDS011;64990;51.698;-0.292;2023-03-14T15:05:56;3.63;;;1.65;;
76208;SDS011;64990;51.698;-0.292;2023-03-14T15:08:22;4.63;;;1.50;;
76208;SDS011;64990;51.698;-0.292;2023-03-14T15:10:49;2.30;;;1.45;;
76208;SDS011;64990;51.698;-0.292;2023-03-14T15:13:15;18.80;;;2.92;;
76208;SDS011;64990;51.698;-0.292;2023-03-14T15:15:41;9.60;;;1.25;;
76208;SDS011;64990;51.698;-0.292;2023-03-14T15:18:15;3.70;;;1.70;;
76208;SDS011;64990;51.698;-0.292;2023-03-14T15:20:42;7.45;;;1.55;;
76208;SDS011;64990;51.698;-0.292;2023-03-14T15:23:11;13.32;;;1.52;;
76208;SDS011;64990;51.698;-0.292;2023-03-14T15:25:38;11.75;;;2.35;;
76208;SDS011;64990;51.698;-0.292;2023-03-14T15:28:12;4.88;;;1.08;;
76208;SDS011;64990;51.698;-0.292;2023-03-14T15:30:40;4.97;;;1.60;;
76208;SDS011;64990;51.698;-0.292;2023-03-14T15:33:07;8.85;;;1.95;;
76208;SDS011;64990;51.698;-0.292;2023-03-14T15:35:34;6.65;;;1.52;;
76208;SDS011;64990;51.698;-0.292;2023-03-14T15:38:00;4.78;;;1.23;;